aviador You're here:

KCIU Decoded Metar

CHIPPEWA INTL in MI, USA
Report Time2017-11-20 21:10:00
UTC Time2017-11-20 21:16:56
Flight Rules vfr VFR
Wind160° at 10 kt
W.Decomp.*RWY 16: 9.9 kt HW 1.0 kt RCW
RWY 09: 2.4 kt HW 9.7 kt RCW
W.Rank160° ranks 22
Current wind is above 160° avg. (6.8)
Visibility9999 m
Phenomena:N/A
Clouds:Scattered 021 Hf
Broken 100 Hf
Expected CloudBase > 1,200 ft AGL from Temp-Dew spread
Ceiling10,000 ft
Temp02°C (ISA -11)
Dew Point-1°C (81% RH)
AAT-3.7°C
QNH1004 hPa
Density Alt-197 ft
Elevation801 ft
Report Wrong Elevation
Raw Report
KCIU 202110Z AUTO 16010KT 10SM SCT021 BKN100 02/M01 A2966 RMK AO2
FZRANO PNO $=

Extra information for KCIU:More info

Metar Taf Metar & Taf Last 4 Metars F.Rules Stats Wind Profile Meteogram Temp Stats Airport Information Weather charts Add Link Nearby VenuesMetar ALERT Operation Metar Decoded Social comments

AIRNAV info for KCIU